createdAt,value
2017-09-27T00:00:33.912Z,91.90
2017-09-27T00:03:01.548Z,91.90
2017-09-27T00:05:29.119Z,91.80
2017-09-27T00:07:56.715Z,91.70
2017-09-27T00:10:25.282Z,91.70
2017-09-27T00:12:53.626Z,91.70
2017-09-27T00:15:21.963Z,92.10
2017-09-27T00:17:49.819Z,91.70
2017-09-27T00:20:17.390Z,91.70
2017-09-27T00:22:45.730Z,91.60
2017-09-27T00:25:13.354Z,91.60
2017-09-27T00:27:40.931Z,91.60
2017-09-27T00:30:08.508Z,91.60
2017-09-27T00:32:36.127Z,91.60
2017-09-27T00:35:04.479Z,91.70
2017-09-27T00:37:33.562Z,91.50
2017-09-27T00:40:01.187Z,91.50
2017-09-27T00:42:28.757Z,91.50
2017-09-27T00:44:57.194Z,91.50
2017-09-27T00:47:24.982Z,91.50
2017-09-27T00:49:53.319Z,91.60
2017-09-27T00:52:20.890Z,91.60
2017-09-27T00:54:48.650Z,91.50
2017-09-27T00:57:16.222Z,91.50
2017-09-27T00:59:43.801Z,91.50
2017-09-27T01:02:11.566Z,91.40
2017-09-27T01:04:39.907Z,91.50
2017-09-27T01:07:07.488Z,91.50
2017-09-27T01:09:35.122Z,91.50
2017-09-27T01:12:03.463Z,91.60
2017-09-27T01:14:31.042Z,91.50
2017-09-27T01:16:58.677Z,91.70
2017-09-27T01:19:26.261Z,91.70
2017-09-27T01:21:53.834Z,91.70
2017-09-27T01:24:21.453Z,91.70
2017-09-27T01:26:49.111Z,91.80
2017-09-27T01:29:16.951Z,91.80
2017-09-27T01:31:44.566Z,91.80
2017-09-27T01:34:12.138Z,91.80
2017-09-27T01:36:39.742Z,91.70
2017-09-27T01:39:07.362Z,91.80
2017-09-27T01:41:35.805Z,91.90
2017-09-27T01:44:03.381Z,91.90
2017-09-27T01:46:31.812Z,91.80
2017-09-27T01:48:59.381Z,91.80
2017-09-27T01:51:27.716Z,91.90
2017-09-27T01:53:55.330Z,91.80
2017-09-27T01:56:22.905Z,91.90
2017-09-27T01:58:50.474Z,92.00
2017-09-27T02:01:18.866Z,91.90
2017-09-27T02:03:46.448Z,91.90
2017-09-27T02:06:14.627Z,91.80
2017-09-27T02:08:42.252Z,91.80
2017-09-27T02:11:09.835Z,91.80
2017-09-27T02:13:38.206Z,91.70
2017-09-27T02:16:06.627Z,91.80
2017-09-27T02:18:34.207Z,91.70
2017-09-27T02:21:02.545Z,91.80
2017-09-27T02:23:31.001Z,91.70
2017-09-27T02:25:58.578Z,91.70
2017-09-27T02:28:26.913Z,91.80
2017-09-27T02:30:54.530Z,91.80
2017-09-27T02:33:22.102Z,91.80
2017-09-27T02:35:49.675Z,91.80
2017-09-27T02:38:17.297Z,91.70
2017-09-27T02:40:44.874Z,91.80
2017-09-27T02:43:12.469Z,91.80
2017-09-27T02:45:40.966Z,91.60
2017-09-27T02:48:09.320Z,91.80
2017-09-27T02:50:37.666Z,91.90
2017-09-27T02:53:05.287Z,91.80
2017-09-27T02:55:32.858Z,91.80
2017-09-27T02:58:00.428Z,91.80
2017-09-27T03:00:28.054Z,91.90
2017-09-27T03:02:55.621Z,91.90
2017-09-27T03:05:23.414Z,91.90
2017-09-27T03:07:51.851Z,91.90
2017-09-27T03:10:19.432Z,91.80
2017-09-27T03:12:47.014Z,91.90
2017-09-27T03:15:15.412Z,91.90
2017-09-27T03:17:42.991Z,91.90
2017-09-27T03:20:10.561Z,91.90
2017-09-27T03:22:38.942Z,92.00
2017-09-27T03:25:06.528Z,92.00
2017-09-27T03:27:34.103Z,91.90
2017-09-27T03:30:02.503Z,91.90
2017-09-27T03:32:30.085Z,91.90
2017-09-27T03:34:58.362Z,92.00
2017-09-27T03:37:26.073Z,92.00
2017-09-27T03:39:53.882Z,92.00
2017-09-27T03:42:21.745Z,91.90
2017-09-27T03:44:49.405Z,92.00
2017-09-27T03:47:16.982Z,92.00
2017-09-27T03:49:44.562Z,91.90
2017-09-27T03:52:16.162Z,91.90
2017-09-27T03:54:43.829Z,91.80
2017-09-27T03:57:11.403Z,91.80
2017-09-27T03:59:39.034Z,91.80
2017-09-27T04:02:07.375Z,91.80
2017-09-27T04:04:34.952Z,91.80
2017-09-27T04:07:02.590Z,92.00
2017-09-27T04:09:30.931Z,92.00
2017-09-27T04:11:58.507Z,92.00
2017-09-27T04:14:26.130Z,91.90
2017-09-27T04:16:53.707Z,92.00
2017-09-27T04:19:21.282Z,92.00
2017-09-27T04:21:48.915Z,92.00
2017-09-27T04:24:16.493Z,91.90
2017-09-27T04:26:44.072Z,92.00
2017-09-27T04:29:11.711Z,92.00
2017-09-27T04:31:39.281Z,92.00
2017-09-27T04:34:06.854Z,92.00
2017-09-27T04:36:34.476Z,91.90
2017-09-27T04:39:02.055Z,91.80
2017-09-27T04:41:29.841Z,91.90
2017-09-27T04:43:57.464Z,91.80
2017-09-27T04:46:25.806Z,91.80
2017-09-27T04:48:53.391Z,91.80
2017-09-27T04:51:21.121Z,91.80
2017-09-27T04:53:49.461Z,91.80
2017-09-27T04:56:17.091Z,91.80
2017-09-27T04:58:44.706Z,92.10
2017-09-27T05:01:12.286Z,91.80
2017-09-27T05:03:39.855Z,91.90
2017-09-27T05:06:08.461Z,91.90
2017-09-27T05:08:36.042Z,91.90
2017-09-27T05:11:03.620Z,91.90
2017-09-27T05:13:32.097Z,92.00
2017-09-27T05:15:59.683Z,92.00
2017-09-27T05:18:27.267Z,92.00
2017-09-27T05:20:55.655Z,91.90
2017-09-27T05:23:23.238Z,91.90
2017-09-27T05:25:52.333Z,91.90
2017-09-27T05:28:19.978Z,91.90
2017-09-27T05:30:47.558Z,91.90
2017-09-27T05:33:15.134Z,91.90
2017-09-27T05:35:42.795Z,92.00
2017-09-27T05:38:10.372Z,92.00
2017-09-27T05:40:38.726Z,91.90
2017-09-27T05:43:07.163Z,92.10
2017-09-27T05:45:34.748Z,91.80
2017-09-27T05:48:03.132Z,91.90
2017-09-27T05:50:31.686Z,91.90
2017-09-27T05:52:59.271Z,92.00
2017-09-27T05:55:26.867Z,92.00
2017-09-27T05:57:55.271Z,92.10
2017-09-27T06:00:22.851Z,92.10
2017-09-27T06:02:50.442Z,92.20
2017-09-27T06:05:18.269Z,92.10
2017-09-27T06:07:46.614Z,92.00
2017-09-27T06:10:14.196Z,92.00
2017-09-27T06:12:41.898Z,92.00
2017-09-27T06:15:09.478Z,92.10
2017-09-27T06:17:37.048Z,92.00
2017-09-27T06:20:04.858Z,91.90
2017-09-27T06:22:33.202Z,91.80
2017-09-27T06:25:00.778Z,91.80
2017-09-27T06:27:28.616Z,91.90
2017-09-27T06:29:56.202Z,92.00
2017-09-27T06:32:23.786Z,92.10
2017-09-27T06:34:52.367Z,92.20
2017-09-27T06:37:20.710Z,92.10
2017-09-27T06:39:49.062Z,92.10
2017-09-27T06:42:16.840Z,92.10
2017-09-27T06:44:45.182Z,91.90
2017-09-27T06:47:12.769Z,91.90
2017-09-27T06:49:40.389Z,92.20
2017-09-27T06:52:08.817Z,91.90
2017-09-27T06:54:36.393Z,91.90
2017-09-27T06:57:04.782Z,91.80
2017-09-27T06:59:32.357Z,91.80
2017-09-27T07:01:59.938Z,91.70
2017-09-27T07:04:28.343Z,91.80
2017-09-27T07:06:55.923Z,91.80
2017-09-27T07:09:23.510Z,91.90
2017-09-27T07:11:51.151Z,91.90
2017-09-27T07:14:18.730Z,91.90
2017-09-27T07:16:46.306Z,91.90
2017-09-27T07:19:13.936Z,91.90
2017-09-27T07:21:41.523Z,91.90
2017-09-27T07:24:09.868Z,92.00
2017-09-27T07:26:37.638Z,92.00
2017-09-27T07:29:05.226Z,92.20
2017-09-27T07:31:32.821Z,92.00
2017-09-27T07:34:01.218Z,91.90
2017-09-27T07:36:28.923Z,91.90
2017-09-27T07:38:57.307Z,92.00
2017-09-27T07:41:25.054Z,92.00
2017-09-27T07:43:52.681Z,92.10
2017-09-27T07:46:21.035Z,92.30
2017-09-27T07:48:49.620Z,92.40
2017-09-27T07:51:17.198Z,92.40
2017-09-27T07:53:44.787Z,92.30
2017-09-27T07:56:13.432Z,92.60
2017-09-27T07:58:41.019Z,92.20
2017-09-27T08:01:09.374Z,92.10
2017-09-27T08:03:37.860Z,91.90
2017-09-27T08:06:05.448Z,91.80
2017-09-27T08:08:33.099Z,91.90
2017-09-27T08:11:00.728Z,91.90
2017-09-27T08:13:28.307Z,92.10
2017-09-27T08:15:56.672Z,92.00
2017-09-27T08:18:24.294Z,91.90
2017-09-27T08:20:51.874Z,91.90
2017-09-27T08:23:20.218Z,91.90
2017-09-27T08:25:48.756Z,92.00
2017-09-27T08:28:16.348Z,91.90
2017-09-27T08:30:43.936Z,92.00
2017-09-27T08:33:11.655Z,92.00
2017-09-27T08:35:39.229Z,92.00
2017-09-27T08:38:06.811Z,92.10
2017-09-27T08:40:35.203Z,92.00
2017-09-27T08:43:02.790Z,91.90
2017-09-27T08:45:30.370Z,91.90
2017-09-27T08:47:58.951Z,91.60
2017-09-27T08:50:26.546Z,91.70
2017-09-27T08:52:54.134Z,91.60
2017-09-27T08:55:21.875Z,91.70
2017-09-27T08:57:50.227Z,91.40
2017-09-27T09:00:18.578Z,91.50
2017-09-27T09:02:46.207Z,91.40
2017-09-27T09:05:13.794Z,91.40
2017-09-27T09:07:41.370Z,91.40
2017-09-27T09:10:08.986Z,91.40
2017-09-27T09:12:36.565Z,91.10
2017-09-27T09:15:04.145Z,91.20
2017-09-27T09:17:31.936Z,91.10
2017-09-27T09:19:59.515Z,91.00
2017-09-27T09:22:28.618Z,90.80
2017-09-27T09:24:56.246Z,90.70
2017-09-27T09:27:23.831Z,90.70
2017-09-27T09:29:51.407Z,90.50
2017-09-27T09:32:19.217Z,90.40
2017-09-27T09:34:47.560Z,90.20
2017-09-27T09:37:15.906Z,90.00
2017-09-27T09:39:43.690Z,90.00
2017-09-27T09:42:12.039Z,89.40
2017-09-27T09:44:39.617Z,89.40
2017-09-27T09:47:07.355Z,88.40
2017-09-27T09:49:34.925Z,87.90
2017-09-27T09:52:02.502Z,88.20
2017-09-27T09:54:31.924Z,87.40
2017-09-27T09:56:59.498Z,87.40
2017-09-27T09:59:27.092Z,87.30
2017-09-27T10:01:54.814Z,87.80
2017-09-27T10:04:22.378Z,87.50
2017-09-27T10:06:49.967Z,87.80
2017-09-27T10:09:17.617Z,88.10
2017-09-27T10:11:45.194Z,88.20
2017-09-27T10:14:12.787Z,88.00
2017-09-27T10:16:40.655Z,87.60
2017-09-27T10:19:09.008Z,87.10
2017-09-27T10:21:37.377Z,85.70
2017-09-27T10:24:05.951Z,85.10
2017-09-27T10:26:34.291Z,83.60
2017-09-27T10:29:01.866Z,83.60
2017-09-27T10:31:35.635Z,83.90
2017-09-27T10:34:04.935Z,84.70
2017-09-27T10:36:32.510Z,84.60
2017-09-27T10:39:00.235Z,84.30
2017-09-27T10:41:27.808Z,84.10
2017-09-27T10:43:55.382Z,83.40
2017-09-27T10:46:23.010Z,83.40
2017-09-27T10:48:50.574Z,83.50
2017-09-27T10:51:18.910Z,82.80
2017-09-27T10:53:46.522Z,82.80
2017-09-27T10:56:14.866Z,82.30
2017-09-27T10:58:42.473Z,82.30
2017-09-27T11:01:10.121Z,82.30
2017-09-27T11:03:38.570Z,82.00
2017-09-27T11:06:06.163Z,81.70
2017-09-27T11:08:33.951Z,81.70
2017-09-27T11:11:01.531Z,80.90
2017-09-27T11:13:29.893Z,80.30
2017-09-27T11:15:59.124Z,80.20
2017-09-27T11:18:26.690Z,80.20
2017-09-27T11:20:54.344Z,79.40
2017-09-27T11:23:22.131Z,80.40
2017-09-27T11:25:50.464Z,80.60
2017-09-27T11:28:18.046Z,80.60
2017-09-27T11:30:46.445Z,80.60
2017-09-27T11:33:14.015Z,80.60
2017-09-27T11:35:41.647Z,80.40
2017-09-27T11:38:09.410Z,80.10
2017-09-27T11:40:37.004Z,80.10
2017-09-27T11:43:05.681Z,81.00
2017-09-27T11:45:33.300Z,81.10
2017-09-27T11:48:01.642Z,79.80
2017-09-27T11:50:29.237Z,79.80
2017-09-27T11:52:56.955Z,79.30
2017-09-27T11:55:24.539Z,79.50
2017-09-27T11:57:52.123Z,79.60
2017-09-27T12:00:20.530Z,78.00
2017-09-27T12:02:48.101Z,78.00
2017-09-27T12:05:15.678Z,77.50
2017-09-27T12:07:44.167Z,76.40
2017-09-27T12:10:11.764Z,76.30
2017-09-27T12:12:39.354Z,75.90
2017-09-27T12:15:06.978Z,75.30
2017-09-27T12:17:35.314Z,76.70
2017-09-27T12:20:02.886Z,76.60
2017-09-27T12:22:31.401Z,77.80
2017-09-27T12:24:58.966Z,77.70
2017-09-27T12:27:26.555Z,78.90
2017-09-27T12:29:54.319Z,77.90
2017-09-27T12:32:21.903Z,78.60
2017-09-27T12:34:49.480Z,78.00
2017-09-27T12:37:17.954Z,77.70
2017-09-27T12:39:45.524Z,77.70
2017-09-27T12:42:13.092Z,77.60
2017-09-27T12:44:40.703Z,77.50
2017-09-27T12:47:08.269Z,77.50
2017-09-27T12:49:35.834Z,77.30
2017-09-27T12:52:03.450Z,76.50
2017-09-27T12:54:31.022Z,76.70
2017-09-27T12:56:58.590Z,76.60
2017-09-27T12:59:26.979Z,78.00
2017-09-27T13:01:54.549Z,77.90
2017-09-27T13:04:22.112Z,78.50
2017-09-27T13:06:49.713Z,78.50
2017-09-27T13:09:17.286Z,79.00
2017-09-27T13:11:44.854Z,79.10
2017-09-27T13:14:12.543Z,79.40
2017-09-27T13:16:40.118Z,79.20
2017-09-27T13:19:07.684Z,77.60
2017-09-27T13:21:35.430Z,77.90
2017-09-27T13:24:02.990Z,78.40
2017-09-27T13:26:30.559Z,78.50
2017-09-27T13:28:58.286Z,78.40
2017-09-27T13:31:26.622Z,78.70
2017-09-27T13:33:54.182Z,78.70
2017-09-27T13:36:22.066Z,79.50
2017-09-27T13:38:49.631Z,80.00
2017-09-27T13:41:17.202Z,81.50
2017-09-27T13:43:45.019Z,81.50
2017-09-27T13:46:12.586Z,82.20
2017-09-27T13:48:40.165Z,82.30
2017-09-27T13:51:10.679Z,83.90
2017-09-27T13:53:38.323Z,83.80
2017-09-27T13:56:05.890Z,83.70
2017-09-27T13:58:33.530Z,83.70
2017-09-27T14:01:01.119Z,83.20
2017-09-27T14:03:28.681Z,82.90
2017-09-27T14:05:56.298Z,83.00
2017-09-27T14:08:23.866Z,83.50
2017-09-27T14:10:51.446Z,83.20
2017-09-27T14:13:19.197Z,82.60
2017-09-27T14:15:46.766Z,82.50
2017-09-27T14:18:14.338Z,82.50
2017-09-27T14:20:42.003Z,82.70
2017-09-27T14:23:09.835Z,82.40
2017-09-27T14:25:38.214Z,82.50
2017-09-27T14:28:05.978Z,82.50
2017-09-27T14:30:34.330Z,82.70
2017-09-27T14:33:01.894Z,82.60
2017-09-27T14:35:30.282Z,83.00
2017-09-27T14:37:57.847Z,82.90
2017-09-27T14:40:25.431Z,83.00
2017-09-27T14:42:53.810Z,83.80
2017-09-27T14:45:21.386Z,83.60
2017-09-27T14:47:48.953Z,84.20
2017-09-27T14:50:16.566Z,84.10
2017-09-27T14:52:44.137Z,84.40
2017-09-27T14:55:12.190Z,85.00
2017-09-27T14:57:40.094Z,85.20
2017-09-27T15:00:07.658Z,85.50
2017-09-27T15:02:35.245Z,85.50
2017-09-27T15:05:02.890Z,85.70
2017-09-27T15:07:30.834Z,85.90
2017-09-27T15:09:59.214Z,85.80
2017-09-27T15:12:26.850Z,85.80
2017-09-27T15:14:54.609Z,85.60
2017-09-27T15:17:22.970Z,85.40
2017-09-27T15:19:50.598Z,85.30
2017-09-27T15:22:20.591Z,85.50
2017-09-27T15:24:48.158Z,85.50
2017-09-27T15:27:15.922Z,85.20
2017-09-27T15:29:44.256Z,85.50
2017-09-27T15:32:11.834Z,85.30
2017-09-27T15:34:40.218Z,85.30
2017-09-27T15:37:07.786Z,85.30
2017-09-27T15:39:35.358Z,85.60
2017-09-27T15:42:02.984Z,85.80
2017-09-27T15:44:30.563Z,85.90
2017-09-27T15:46:58.992Z,85.80
2017-09-27T15:49:26.610Z,85.70
2017-09-27T15:51:54.179Z,86.00
2017-09-27T15:54:21.798Z,86.10
2017-09-27T15:56:49.430Z,86.20
2017-09-27T15:59:17.035Z,86.30
2017-09-27T16:01:44.626Z,86.30
2017-09-27T16:04:12.273Z,86.80
2017-09-27T16:06:39.843Z,86.40
2017-09-27T16:09:07.416Z,86.20
2017-09-27T16:11:35.339Z,87.00
2017-09-27T16:14:02.909Z,86.20
2017-09-27T16:16:30.474Z,86.50
2017-09-27T16:18:58.845Z,86.30
2017-09-27T16:21:26.414Z,86.30
2017-09-27T16:23:53.978Z,86.70
2017-09-27T16:26:21.598Z,87.00
2017-09-27T16:28:50.830Z,87.40
2017-09-27T16:31:18.420Z,87.30
2017-09-27T16:33:46.048Z,88.60
2017-09-27T16:36:13.625Z,87.80
2017-09-27T16:38:41.206Z,88.10
2017-09-27T16:41:08.867Z,88.20
2017-09-27T16:43:37.214Z,88.50
2017-09-27T16:46:04.796Z,88.40
2017-09-27T16:48:32.452Z,88.20
2017-09-27T16:51:00.026Z,88.20
2017-09-27T16:53:27.594Z,88.70
2017-09-27T16:55:55.989Z,88.80
2017-09-27T16:58:23.639Z,88.70
2017-09-27T17:00:51.235Z,88.60
2017-09-27T17:03:18.962Z,88.90
2017-09-27T17:05:46.566Z,89.30
2017-09-27T17:08:14.139Z,89.50
2017-09-27T17:10:41.779Z,89.60
2017-09-27T17:13:09.446Z,90.00
2017-09-27T17:15:37.035Z,90.30
2017-09-27T17:18:05.453Z,90.60
2017-09-27T17:20:33.020Z,90.60
2017-09-27T17:23:00.594Z,90.60
2017-09-27T17:25:28.206Z,90.60
2017-09-27T17:27:57.294Z,90.90
2017-09-27T17:30:24.859Z,91.20
2017-09-27T17:32:52.477Z,90.90
2017-09-27T17:35:20.047Z,91.20
2017-09-27T17:37:47.615Z,91.10
2017-09-27T17:40:15.225Z,90.70
2017-09-27T17:42:43.551Z,90.50
2017-09-27T17:45:11.139Z,90.50
2017-09-27T17:47:38.747Z,90.60
2017-09-27T17:50:06.318Z,90.80
2017-09-27T17:52:34.686Z,91.10
2017-09-27T17:55:03.159Z,91.30
2017-09-27T17:57:30.739Z,91.30
2017-09-27T17:59:58.306Z,91.10
2017-09-27T18:02:25.914Z,91.10
2017-09-27T18:08:09.063Z,91.20
2017-09-27T18:10:43.297Z,91.40
2017-09-27T18:16:20.508Z,91.50
2017-09-27T18:18:48.119Z,91.60
2017-09-27T18:21:15.707Z,91.60
2017-09-27T18:23:43.282Z,91.70
2017-09-27T18:26:11.774Z,91.60
2017-09-27T18:28:39.343Z,92.00
2017-09-27T18:31:06.918Z,91.70
2017-09-27T18:33:34.694Z,91.70
2017-09-27T18:36:03.058Z,92.10
2017-09-27T18:38:30.642Z,92.10
2017-09-27T18:40:58.341Z,92.10
2017-09-27T18:43:26.827Z,91.90
2017-09-27T18:45:54.399Z,91.90
2017-09-27T18:48:22.014Z,91.90
2017-09-27T18:50:49.591Z,91.80
2017-09-27T18:53:17.166Z,91.80
2017-09-27T18:55:45.554Z,91.90
2017-09-27T18:58:14.004Z,91.90
2017-09-27T19:00:42.407Z,92.00
2017-09-27T19:03:10.022Z,92.00
2017-09-27T19:05:37.605Z,91.90
2017-09-27T19:08:05.186Z,91.90
2017-09-27T19:10:34.342Z,92.00
2017-09-27T19:13:01.915Z,92.00
2017-09-27T19:15:29.478Z,92.10
2017-09-27T19:17:57.107Z,92.10
2017-09-27T19:20:25.443Z,92.20
2017-09-27T19:22:53.010Z,92.20
2017-09-27T19:25:21.391Z,92.10
2017-09-27T19:27:57.718Z,92.10
2017-09-27T19:30:26.205Z,92.30
2017-09-27T19:32:54.549Z,92.70
2017-09-27T19:35:22.887Z,92.30
2017-09-27T19:37:50.659Z,92.60
2017-09-27T19:40:18.996Z,92.70
2017-09-27T19:42:46.591Z,92.70
2017-09-27T19:45:14.222Z,92.60
2017-09-27T19:47:42.575Z,92.60
2017-09-27T19:50:10.907Z,92.50
2017-09-27T19:52:38.509Z,92.50
2017-09-27T19:55:06.076Z,92.50
2017-09-27T19:57:33.659Z,92.50
2017-09-27T20:00:01.274Z,92.60
2017-09-27T20:02:28.847Z,92.70
2017-09-27T20:04:56.422Z,92.80
2017-09-27T20:07:24.163Z,92.80
2017-09-27T20:09:51.735Z,92.70
2017-09-27T20:12:19.303Z,92.80
2017-09-27T20:14:46.923Z,93.00
2017-09-27T20:17:14.498Z,93.10
2017-09-27T20:19:42.084Z,93.10
2017-09-27T20:22:09.719Z,93.20
2017-09-27T20:24:38.054Z,93.00
2017-09-27T20:27:05.627Z,93.00
2017-09-27T20:29:34.196Z,93.10
2017-09-27T20:32:02.542Z,93.10
2017-09-27T20:34:30.883Z,93.10
2017-09-27T20:36:58.521Z,92.90
2017-09-27T20:39:26.113Z,92.90
2017-09-27T20:41:53.695Z,93.00
2017-09-27T20:44:21.501Z,93.20
2017-09-27T20:46:49.830Z,92.90
2017-09-27T20:49:17.403Z,92.80
2017-09-27T20:51:45.962Z,92.80
2017-09-27T20:54:14.298Z,92.70
2017-09-27T20:56:41.883Z,92.70
2017-09-27T20:59:09.501Z,92.60
2017-09-27T21:01:37.075Z,92.60
2017-09-27T21:04:04.645Z,92.50
2017-09-27T21:06:32.435Z,92.40
2017-09-27T21:09:00.010Z,92.40
2017-09-27T21:11:27.582Z,92.30
2017-09-27T21:13:55.397Z,92.30
2017-09-27T21:16:23.730Z,92.00
2017-09-27T21:18:51.307Z,92.00
2017-09-27T21:21:18.972Z,92.00
2017-09-27T21:23:46.549Z,92.00
2017-09-27T21:26:14.126Z,92.00
2017-09-27T21:28:42.507Z,92.00
2017-09-27T21:31:10.085Z,92.00
2017-09-27T21:33:37.741Z,92.00
2017-09-27T21:36:05.375Z,92.00
2017-09-27T21:38:32.948Z,91.90
2017-09-27T21:41:00.519Z,92.00
2017-09-27T21:43:28.148Z,92.00
2017-09-27T21:45:55.719Z,92.00
2017-09-27T21:48:23.294Z,91.90
2017-09-27T21:50:51.011Z,92.00
2017-09-27T21:53:18.578Z,92.00
2017-09-27T21:55:46.150Z,91.80
2017-09-27T21:58:13.922Z,91.70
2017-09-27T22:00:42.262Z,91.60
2017-09-27T22:03:09.843Z,91.60
2017-09-27T22:05:37.463Z,91.90
2017-09-27T22:08:05.033Z,91.50
2017-09-27T22:10:32.611Z,91.40
2017-09-27T22:13:00.414Z,91.40
2017-09-27T22:15:28.750Z,91.30
2017-09-27T22:17:56.318Z,91.30
2017-09-27T22:20:24.882Z,91.30
2017-09-27T22:22:53.217Z,91.40
2017-09-27T22:25:20.790Z,91.30
2017-09-27T22:27:49.305Z,91.30
2017-09-27T22:30:16.874Z,91.30
2017-09-27T22:32:44.441Z,91.30
2017-09-27T22:35:13.011Z,91.30
2017-09-27T22:37:41.347Z,91.30
2017-09-27T22:40:08.918Z,91.30
2017-09-27T22:42:36.564Z,91.30
2017-09-27T22:45:04.894Z,91.40
2017-09-27T22:47:32.462Z,91.40
2017-09-27T22:50:01.038Z,91.50
2017-09-27T22:52:29.384Z,91.50
2017-09-27T22:54:56.958Z,91.50
2017-09-27T22:57:24.575Z,91.60
2017-09-27T22:59:52.909Z,91.60
2017-09-27T23:02:20.475Z,91.60
2017-09-27T23:04:48.087Z,91.60
2017-09-27T23:07:15.656Z,91.70
2017-09-27T23:09:43.222Z,91.70
2017-09-27T23:12:11.608Z,91.90
2017-09-27T23:14:39.171Z,91.90
2017-09-27T23:17:06.747Z,91.80
2017-09-27T23:19:34.630Z,91.90
2017-09-27T23:22:02.967Z,91.90
2017-09-27T23:24:30.545Z,91.90
2017-09-27T23:26:58.383Z,92.10
2017-09-27T23:29:26.718Z,91.90
2017-09-27T23:31:54.451Z,91.90
2017-09-27T23:34:22.074Z,91.80
2017-09-27T23:36:49.651Z,91.80
2017-09-27T23:39:17.218Z,91.70
2017-09-27T23:41:45.615Z,91.70
2017-09-27T23:44:13.191Z,91.70
2017-09-27T23:46:40.759Z,91.70
2017-09-27T23:49:09.146Z,91.90
2017-09-27T23:51:36.719Z,91.70
2017-09-27T23:54:04.612Z,91.70
2017-09-27T23:56:33.006Z,91.90
2017-09-27T23:59:00.574Z,91.90
